Time;durP1;ratioP1;P1;durP2;ratioP2;P2;SDS_P1;SDS_P2;PMS_P1;PMS_P2;Temp;Humidity;BMP_temperature;BMP_pressure;BME280_temperature;BME280_humidity;BME280_pressure;Samples;Min_cycle;Max_cycle;Signal;HPM_P1;HPM_P2
2022/05/02 00:00:32;;;;;;;;;25.75;25.25;;;;;;;;5101773;27;45281;-75
2022/05/02 00:02:58;;;;;;;;;23.75;22.50;;;;;;;;5102487;27;45280;-75
2022/05/02 00:05:24;;;;;;;;;22.00;22.00;;;;;;;;5102612;27;45487;-75
2022/05/02 00:07:49;;;;;;;;;32.25;27.50;;;;;;;;5101034;27;47181;-76
2022/05/02 00:10:14;;;;;;;;;25.25;24.00;;;;;;;;5102348;27;45322;-75
2022/05/02 00:12:39;;;;;;;;;28.00;25.25;;;;;;;;5102242;27;45462;-75
2022/05/02 00:15:05;;;;;;;;;25.00;24.50;;;;;;;;5096303;27;45956;-76
2022/05/02 00:20:14;;;;;;;;;24.25;23.25;;;;;;;;5081642;28;45261;-75
2022/05/02 00:22:40;;;;;;;;;23.25;23.25;;;;;;;;5081637;28;45517;-76
2022/05/02 00:25:05;;;;;;;;;28.50;27.50;;;;;;;;5081907;27;45280;-76
2022/05/02 00:27:31;;;;;;;;;24.25;22.00;;;;;;;;5080112;28;47471;-76
2022/05/02 00:29:56;;;;;;;;;24.75;24.75;;;;;;;;5081719;27;45356;-76
2022/05/02 00:32:21;;;;;;;;;24.00;22.25;;;;;;;;5080212;28;45404;-75
2022/05/02 00:34:46;;;;;;;;;23.25;22.75;;;;;;;;5097315;27;47390;-75
2022/05/02 00:37:14;;;;;;;;;28.50;25.75;;;;;;;;5081547;27;45436;-75
2022/05/02 00:39:39;;;;;;;;;23.00;23.00;;;;;;;;5081423;28;45321;-75
2022/05/02 00:42:05;;;;;;;;;24.25;23.50;;;;;;;;5081688;27;45442;-76
2022/05/02 00:44:30;;;;;;;;;24.25;24.25;;;;;;;;5080165;28;46433;-75
2022/05/02 00:46:56;;;;;;;;;24.50;22.25;;;;;;;;5097316;27;48056;-75
2022/05/02 00:49:21;;;;;;;;;24.00;21.25;;;;;;;;5081296;27;45300;-75
2022/05/02 00:51:46;;;;;;;;;25.00;23.75;;;;;;;;5080032;28;45223;-76
2022/05/02 00:54:11;;;;;;;;;23.25;22.50;;;;;;;;5081284;28;45215;-76
2022/05/02 00:56:36;;;;;;;;;25.00;23.00;;;;;;;;5081413;27;45359;-75
2022/05/02 00:59:03;;;;;;;;;26.50;23.75;;;;;;;;5081205;27;45475;-75
2022/05/02 01:01:28;;;;;;;;;22.75;22.75;;;;;;;;5081613;27;45295;-77
2022/05/02 01:03:53;;;;;;;;;20.00;20.00;;;;;;;;5081135;27;45293;-76
2022/05/02 01:09:02;;;;;;;;;25.00;24.50;;;;;;;;5081410;28;45274;-76
2022/05/02 01:11:29;;;;;;;;;29.25;26.50;;;;;;;;5081359;27;45206;-75
2022/05/02 01:13:54;;;;;;;;;25.75;24.75;;;;;;;;5079575;28;46422;-75
2022/05/02 01:16:21;;;;;;;;;29.25;26.50;;;;;;;;5095399;27;46206;-76
2022/05/02 01:18:50;;;;;;;;;22.50;22.50;;;;;;;;5099926;27;45369;-75
2022/05/02 01:21:17;;;;;;;;;28.50;25.25;;;;;;;;5101673;27;45244;-75
2022/05/02 01:23:43;;;;;;;;;29.75;27.00;;;;;;;;5098917;27;46156;-76
2022/05/02 01:26:09;;;;;;;;;30.00;27.25;;;;;;;;5100824;27;45523;-76
2022/05/02 01:28:41;;;;;;;;;26.50;25.75;;;;;;;;5101321;27;45261;-76
2022/05/02 01:31:06;;;;;;;;;27.25;26.25;;;;;;;;5101286;27;45135;-76
2022/05/02 01:33:33;;;;;;;;;33.25;30.25;;;;;;;;5100895;27;45707;-76
2022/05/02 01:35:58;;;;;;;;;28.00;27.00;;;;;;;;5100961;27;46713;-76
2022/05/02 01:38:23;;;;;;;;;25.75;25.75;;;;;;;;5099349;27;45257;-76
2022/05/02 01:40:48;;;;;;;;;32.00;30.50;;;;;;;;5101415;27;45365;-75
2022/05/02 01:43:13;;;;;;;;;27.50;26.50;;;;;;;;5100687;27;45542;-77
2022/05/02 01:45:39;;;;;;;;;31.50;27.50;;;;;;;;5099699;27;47430;-76
2022/05/02 01:48:04;;;;;;;;;25.50;24.50;;;;;;;;5100556;27;45220;-77
2022/05/02 01:50:29;;;;;;;;;30.50;27.00;;;;;;;;5100922;27;45310;-76
2022/05/02 01:52:55;;;;;;;;;25.50;25.50;;;;;;;;5100607;27;45281;-76
2022/05/02 01:55:20;;;;;;;;;25.75;23.75;;;;;;;;5100773;27;46184;-76
2022/05/02 01:57:47;;;;;;;;;25.25;23.25;;;;;;;;5099286;27;45345;-76
2022/05/02 02:00:12;;;;;;;;;25.50;25.50;;;;;;;;5101121;27;45403;-76
2022/05/02 02:02:37;;;;;;;;;25.00;23.00;;;;;;;;5100256;27;45432;-76
2022/05/02 02:07:46;;;;;;;;;25.00;24.00;;;;;;;;5100496;27;45375;-76
2022/05/02 02:10:11;;;;;;;;;23.25;22.50;;;;;;;;5100382;27;45327;-75
2022/05/02 02:12:37;;;;;;;;;22.25;20.75;;;;;;;;5099136;27;46248;-77
2022/05/02 02:15:02;;;;;;;;;30.00;27.00;;;;;;;;5096319;27;46172;-76
2022/05/02 02:17:27;;;;;;;;;31.25;29.00;;;;;;;;5079651;28;45483;-76
2022/05/02 02:19:52;;;;;;;;;26.50;23.00;;;;;;;;5080085;27;45361;-75
2022/05/02 02:22:18;;;;;;;;;27.50;25.75;;;;;;;;5095859;27;46393;-76
2022/05/02 02:24:43;;;;;;;;;25.50;24.75;;;;;;;;5079815;27;45359;-75
2022/05/02 02:27:09;;;;;;;;;26.25;24.25;;;;;;;;5079865;28;45401;-75
2022/05/02 02:29:34;;;;;;;;;25.00;25.00;;;;;;;;5079859;28;45426;-75
2022/05/02 02:31:59;;;;;;;;;28.75;27.75;;;;;;;;5095251;27;46231;-76
2022/05/02 02:34:24;;;;;;;;;28.25;27.50;;;;;;;;5079262;27;46294;-76
2022/05/02 02:36:49;;;;;;;;;27.00;27.00;;;;;;;;5079520;27;45289;-75
2022/05/02 02:39:15;;;;;;;;;29.75;28.00;;;;;;;;5078390;28;45333;-75
2022/05/02 02:41:40;;;;;;;;;28.00;27.50;;;;;;;;5079681;27;45443;-76
2022/05/02 02:44:05;;;;;;;;;26.25;25.75;;;;;;;;5077865;28;47093;-76
2022/05/02 02:46:30;;;;;;;;;31.00;30.00;;;;;;;;5079485;27;45349;-76
2022/05/02 02:48:55;;;;;;;;;28.75;24.50;;;;;;;;5079704;27;45278;-75
2022/05/02 02:51:21;;;;;;;;;28.00;27.25;;;;;;;;5079357;27;45283;-75
2022/05/02 02:53:46;;;;;;;;;27.75;26.50;;;;;;;;5079630;27;45341;-76
2022/05/02 02:56:11;;;;;;;;;31.50;26.00;;;;;;;;5078130;28;45421;-77
2022/05/02 02:58:36;;;;;;;;;27.00;27.00;;;;;;;;5079773;27;45276;-76
2022/05/02 03:01:02;;;;;;;;;29.00;27.50;;;;;;;;5078265;28;46093;-75
2022/05/02 03:03:27;;;;;;;;;29.75;27.75;;;;;;;;5077803;28;48507;-76
2022/05/02 03:06:01;;;;;;;;;27.75;26.75;;;;;;;;5079406;27;45382;-75
2022/05/02 03:08:27;;;;;;;;;28.00;26.50;;;;;;;;5079409;27;45255;-76
2022/05/02 03:10:52;;;;;;;;;29.00;26.50;;;;;;;;5078947;27;45260;-75
2022/05/02 03:13:18;;;;;;;;;30.00;28.00;;;;;;;;5079241;27;45555;-75
2022/05/02 03:15:43;;;;;;;;;33.00;29.75;;;;;;;;5089183;27;45333;-76
2022/05/02 03:18:08;;;;;;;;;32.00;28.00;;;;;;;;5099353;27;45823;-75
2022/05/02 03:20:33;;;;;;;;;23.00;23.00;;;;;;;;5099401;27;45297;-76
2022/05/02 03:22:59;;;;;;;;;30.50;27.75;;;;;;;;5099520;27;45285;-77
2022/05/02 03:25:24;;;;;;;;;30.25;26.75;;;;;;;;5099810;27;45410;-75
2022/05/02 03:27:49;;;;;;;;;28.00;27.00;;;;;;;;5098177;27;45301;-75
2022/05/02 03:30:14;;;;;;;;;27.00;27.00;;;;;;;;5099277;27;45605;-76
2022/05/02 03:32:39;;;;;;;;;29.50;25.75;;;;;;;;5098715;27;45434;-76
2022/05/02 03:35:05;;;;;;;;;29.00;27.50;;;;;;;;5097613;27;45310;-75
2022/05/02 03:37:30;;;;;;;;;30.50;29.50;;;;;;;;5099279;27;45353;-75
2022/05/02 03:39:56;;;;;;;;;33.50;29.25;;;;;;;;5098097;27;46283;-76
2022/05/02 03:42:21;;;;;;;;;32.25;30.00;;;;;;;;5099423;27;45428;-76
2022/05/02 03:44:46;;;;;;;;;29.75;28.75;;;;;;;;5099141;27;45376;-77
2022/05/02 03:47:12;;;;;;;;;28.25;26.25;;;;;;;;5099865;27;45377;-75
2022/05/02 03:49:37;;;;;;;;;31.00;28.50;;;;;;;;5102472;27;45361;-75
2022/05/02 03:52:03;;;;;;;;;32.75;30.50;;;;;;;;5102640;27;45327;-75
2022/05/02 03:54:28;;;;;;;;;32.00;30.00;;;;;;;;5102722;27;45297;-75
2022/05/02 03:56:53;;;;;;;;;29.25;27.25;;;;;;;;5102881;27;45333;-75
2022/05/02 03:59:18;;;;;;;;;33.50;29.00;;;;;;;;5102717;27;45309;-76
2022/05/02 04:01:45;;;;;;;;;30.25;27.00;;;;;;;;5102850;27;46664;-75
2022/05/02 04:04:10;;;;;;;;;29.00;27.50;;;;;;;;5102390;27;45295;-76
2022/05/02 04:06:35;;;;;;;;;34.25;30.50;;;;;;;;5102454;27;45369;-75
2022/05/02 04:09:00;;;;;;;;;29.25;29.25;;;;;;;;5102660;27;45288;-75
2022/05/02 04:11:26;;;;;;;;;35.25;32.75;;;;;;;;5102235;27;45360;-75
2022/05/02 04:13:51;;;;;;;;;39.75;34.25;;;;;;;;5101104;27;45373;-76
2022/05/02 04:16:16;;;;;;;;;31.50;30.75;;;;;;;;5088274;27;45309;-75
2022/05/02 04:18:43;;;;;;;;;31.75;30.00;;;;;;;;5080357;28;47072;-76
2022/05/02 04:21:08;;;;;;;;;34.25;29.25;;;;;;;;5081934;27;45299;-75
2022/05/02 04:23:34;;;;;;;;;34.75;31.25;;;;;;;;5081538;27;45355;-75
2022/05/02 04:25:59;;;;;;;;;31.50;30.75;;;;;;;;5082162;27;45337;-75
2022/05/02 04:28:24;;;;;;;;;30.50;30.25;;;;;;;;5081563;27;45442;-75
2022/05/02 04:30:49;;;;;;;;;27.75;25.50;;;;;;;;5081235;27;46143;-75
2022/05/02 04:33:15;;;;;;;;;30.50;30.00;;;;;;;;5080049;28;45302;-76
2022/05/02 04:35:40;;;;;;;;;31.50;29.00;;;;;;;;5097612;27;45290;-76
2022/05/02 04:38:05;;;;;;;;;32.75;31.00;;;;;;;;5080255;28;47515;-75
2022/05/02 04:40:30;;;;;;;;;33.00;30.00;;;;;;;;5097099;27;47100;-75
2022/05/02 04:42:55;;;;;;;;;34.00;30.75;;;;;;;;5081311;27;45290;-75
2022/05/02 04:45:21;;;;;;;;;30.25;30.25;;;;;;;;5080534;28;45393;-76
2022/05/02 04:47:46;;;;;;;;;35.25;31.75;;;;;;;;5081056;27;45639;-75
2022/05/02 04:50:11;;;;;;;;;35.25;31.25;;;;;;;;5081488;27;45430;-75
2022/05/02 04:52:37;;;;;;;;;42.25;35.25;;;;;;;;5080977;27;45373;-75
2022/05/02 04:55:02;;;;;;;;;36.75;32.25;;;;;;;;5081358;28;45316;-75
2022/05/02 04:57:27;;;;;;;;;37.25;31.50;;;;;;;;5079498;28;46645;-75
2022/05/02 04:59:52;;;;;;;;;35.25;33.00;;;;;;;;5080232;28;47159;-76
2022/05/02 05:02:18;;;;;;;;;37.25;35.00;;;;;;;;5080760;27;45439;-75
2022/05/02 05:04:43;;;;;;;;;35.25;32.75;;;;;;;;5079933;28;45409;-76
2022/05/02 05:07:08;;;;;;;;;36.50;33.75;;;;;;;;5080836;27;45452;-75
2022/05/02 05:09:33;;;;;;;;;37.50;32.75;;;;;;;;5080910;27;45582;-75
2022/05/02 05:12:16;;;;;;;;;40.25;33.50;;;;;;;;5081304;27;45310;-75
2022/05/02 05:17:55;;;;;;;;;40.75;34.50;;;;;;;;5100671;27;45353;-75
2022/05/02 05:20:20;;;;;;;;;41.75;34.25;;;;;;;;5099166;27;45447;-76
2022/05/02 05:23:04;;;;;;;;;34.75;33.00;;;;;;;;5099801;27;45150;-75
2022/05/02 05:26:02;;;;;;;;;37.75;35.00;;;;;;;;5101439;27;45483;-75
2022/05/02 05:28:42;;;;;;;;;38.25;33.50;;;;;;;;5065619;27;45908;-75
2022/05/02 05:31:25;;;;;;;;;42.75;35.00;;;;;;;;5099352;27;48192;-76
2022/05/02 05:33:56;;;;;;;;;43.00;35.75;;;;;;;;5099796;27;45214;-76
2022/05/02 05:36:44;;;;;;;;;44.75;35.50;;;;;;;;5100984;27;45393;-76
2022/05/02 05:39:11;;;;;;;;;34.25;32.00;;;;;;;;5091409;27;46773;-74
2022/05/02 05:41:39;;;;;;;;;39.50;34.25;;;;;;;;5100906;27;45328;-75
2022/05/02 05:44:06;;;;;;;;;43.25;37.25;;;;;;;;5101097;27;45314;-75
2022/05/02 05:46:50;;;;;;;;;40.50;36.00;;;;;;;;5101111;27;45353;-76
2022/05/02 05:49:16;;;;;;;;;43.00;35.00;;;;;;;;5099085;27;46070;-75
2022/05/02 05:51:54;;;;;;;;;43.75;35.75;;;;;;;;5100685;27;45575;-76
2022/05/02 05:54:31;;;;;;;;;42.50;37.00;;;;;;;;5100944;27;45348;-76
2022/05/02 05:57:03;;;;;;;;;42.75;36.00;;;;;;;;5100871;27;45383;-76
2022/05/02 05:59:47;;;;;;;;;41.50;36.00;;;;;;;;5099636;27;46635;-75
2022/05/02 06:02:17;;;;;;;;;42.50;36.00;;;;;;;;5098803;27;46561;-76
2022/05/02 06:04:43;;;;;;;;;45.00;37.50;;;;;;;;5099428;27;45459;-76
2022/05/02 06:07:08;;;;;;;;;50.50;39.00;;;;;;;;5100429;27;45341;-75
2022/05/02 06:09:36;;;;;;;;;42.75;37.50;;;;;;;;5099814;27;45463;-75
2022/05/02 06:12:01;;;;;;;;;45.75;38.25;;;;;;;;5100408;27;45738;-75
2022/05/02 06:14:30;;;;;;;;;44.75;35.75;;;;;;;;5099186;27;45420;-75
2022/05/02 06:19:42;;;;;;;;;47.75;38.75;;;;;;;;5080070;28;45256;-76
2022/05/02 06:22:10;;;;;;;;;40.75;35.25;;;;;;;;5079728;27;46471;-75
2022/05/02 06:24:36;;;;;;;;;41.00;36.25;;;;;;;;5079556;27;45342;-75
2022/05/02 06:27:02;;;;;;;;;42.00;34.75;;;;;;;;5078457;28;45395;-76
2022/05/02 06:29:27;;;;;;;;;45.25;37.00;;;;;;;;5079780;28;45504;-76
2022/05/02 06:31:54;;;;;;;;;45.25;38.75;;;;;;;;5079726;27;45325;-76
2022/05/02 06:34:23;;;;;;;;;37.50;33.25;;;;;;;;5079523;27;45276;-75
2022/05/02 06:37:09;;;;;;;;;44.25;36.50;;;;;;;;5078362;28;45259;-76
2022/05/02 06:39:40;;;;;;;;;39.25;35.25;;;;;;;;5079764;27;45335;-76
2022/05/02 06:42:28;;;;;;;;;48.00;37.25;;;;;;;;5065841;28;47452;-75
2022/05/02 06:45:01;;;;;;;;;45.50;37.50;;;;;;;;5058234;28;45898;-76
2022/05/02 06:47:56;;;;;;;;;44.50;37.00;;;;;;;;5059072;28;45369;-74
2022/05/02 06:50:23;;;;;;;;;41.25;36.00;;;;;;;;5021309;28;45630;-74
2022/05/02 06:52:58;;;;;;;;;45.75;37.75;;;;;;;;5058790;28;45348;-75
2022/05/02 06:55:34;;;;;;;;;43.75;36.25;;;;;;;;5057947;28;45381;-77
2022/05/02 06:58:02;;;;;;;;;36.50;32.00;;;;;;;;5059432;28;45379;-75
2022/05/02 07:00:31;;;;;;;;;44.25;36.75;;;;;;;;5064404;28;45673;-75
2022/05/02 07:03:16;;;;;;;;;43.75;37.25;;;;;;;;5074904;28;47129;-75
2022/05/02 07:05:41;;;;;;;;;44.50;35.50;;;;;;;;5077950;28;45386;-75
2022/05/02 07:08:07;;;;;;;;;34.50;32.00;;;;;;;;5079301;27;45574;-75
2022/05/02 07:10:33;;;;;;;;;37.75;32.50;;;;;;;;5079151;28;45256;-75
2022/05/02 07:13:18;;;;;;;;;48.50;39.75;;;;;;;;5075592;28;46430;-74
2022/05/02 07:15:51;;;;;;;;;41.75;36.25;;;;;;;;5076354;27;45440;-75
2022/05/02 07:18:16;;;;;;;;;46.75;38.75;;;;;;;;5099296;27;45370;-75
2022/05/02 07:20:51;;;;;;;;;43.50;36.75;;;;;;;;5098095;27;46923;-75
2022/05/02 07:23:29;;;;;;;;;43.75;36.75;;;;;;;;5102072;27;45568;-76
2022/05/02 07:26:02;;;;;;;;;44.00;37.00;;;;;;;;5101234;27;45257;-75
2022/05/02 07:28:36;;;;;;;;;39.25;34.25;;;;;;;;5101493;27;45344;-75
2022/05/02 07:31:01;;;;;;;;;45.50;37.00;;;;;;;;5102329;27;45819;-75
2022/05/02 07:33:29;;;;;;;;;45.00;38.75;;;;;;;;5102608;27;46486;-75
2022/05/02 07:35:56;;;;;;;;;47.50;39.50;;;;;;;;5102888;27;45413;-75
2022/05/02 07:38:22;;;;;;;;;42.25;35.75;;;;;;;;5098530;27;45329;-76
2022/05/02 07:43:33;;;;;;;;;46.50;39.50;;;;;;;;5081796;28;45887;-75
2022/05/02 07:46:01;;;;;;;;;46.00;39.00;;;;;;;;5080283;28;45658;-76
2022/05/02 07:48:27;;;;;;;;;46.50;39.00;;;;;;;;5079295;27;45338;-75
2022/05/02 07:50:54;;;;;;;;;46.75;39.00;;;;;;;;5074026;27;45279;-76
2022/05/02 07:53:21;;;;;;;;;41.75;35.50;;;;;;;;5061566;28;45389;-76
2022/05/02 07:55:47;;;;;;;;;48.00;39.00;;;;;;;;5061439;28;45326;-75
2022/05/02 07:58:14;;;;;;;;;46.00;39.50;;;;;;;;5061689;28;45321;-75
2022/05/02 08:00:39;;;;;;;;;48.00;39.50;;;;;;;;5069000;28;45373;-75
2022/05/02 08:03:04;;;;;;;;;47.00;39.00;;;;;;;;5081719;27;46253;-75
2022/05/02 08:05:29;;;;;;;;;49.50;41.00;;;;;;;;5080291;28;45256;-78
2022/05/02 08:08:01;;;;;;;;;44.50;38.50;;;;;;;;5081744;28;45309;-76
2022/05/02 08:10:30;;;;;;;;;43.00;36.50;;;;;;;;5081503;27;45280;-75
2022/05/02 08:12:57;;;;;;;;;50.00;41.00;;;;;;;;5081294;27;46165;-75
2022/05/02 08:15:23;;;;;;;;;50.50;41.75;;;;;;;;5086715;27;45349;-75
2022/05/02 08:17:52;;;;;;;;;45.75;38.75;;;;;;;;5100147;27;45421;-75
2022/05/02 08:20:17;;;;;;;;;51.00;41.00;;;;;;;;5102617;27;45411;-75
2022/05/02 08:28:45;;;;;;;;;46.25;38.50;;;;;;;;5061269;28;45304;-75
2022/05/02 08:31:20;;;;;;;;;51.50;41.75;;;;;;;;5059687;28;47093;-75
2022/05/02 08:33:57;;;;;;;;;52.00;42.25;;;;;;;;5060507;28;46043;-75
2022/05/02 08:36:29;;;;;;;;;53.50;43.00;;;;;;;;5061221;28;45680;-74
2022/05/02 08:39:00;;;;;;;;;50.75;42.25;;;;;;;;5061291;28;45326;-75
2022/05/02 08:41:25;;;;;;;;;50.50;41.50;;;;;;;;5061157;28;45265;-74
2022/05/02 08:44:02;;;;;;;;;47.25;39.50;;;;;;;;5061080;28;45322;-75
2022/05/02 08:46:28;;;;;;;;;46.50;39.50;;;;;;;;5059355;28;45398;-76
2022/05/02 08:52:05;;;;;;;;;49.50;40.75;;;;;;;;5060728;28;45341;-75
2022/05/02 08:54:42;;;;;;;;;50.50;40.75;;;;;;;;5061100;28;46636;-75
2022/05/02 08:57:10;;;;;;;;;54.25;43.00;;;;;;;;5060930;28;45311;-76
2022/05/02 08:59:54;;;;;;;;;51.25;42.50;;;;;;;;5061514;28;45329;-75
2022/05/02 09:02:42;;;;;;;;;50.00;41.50;;;;;;;;5060631;28;45259;-75
2022/05/02 09:05:18;;;;;;;;;50.25;41.25;;;;;;;;5051021;28;47862;-75
2022/05/02 09:07:43;;;;;;;;;50.25;41.50;;;;;;;;5058965;28;45169;-75
2022/05/02 09:10:17;;;;;;;;;50.00;42.25;;;;;;;;5060495;28;45499;-75
2022/05/02 09:12:57;;;;;;;;;48.00;39.50;;;;;;;;5060652;28;45286;-75
2022/05/02 09:15:41;;;;;;;;;53.25;44.00;;;;;;;;5074048;27;45405;-75
2022/05/02 09:18:25;;;;;;;;;49.50;41.00;;;;;;;;5101102;27;45342;-75
2022/05/02 09:21:08;;;;;;;;;46.25;39.75;;;;;;;;5101497;27;45269;-75
2022/05/02 09:23:48;;;;;;;;;48.25;40.00;;;;;;;;5101249;27;45741;-75
2022/05/02 09:26:13;;;;;;;;;47.75;38.50;;;;;;;;5084491;27;46206;-75
2022/05/02 09:28:38;;;;;;;;;51.50;43.25;;;;;;;;5079461;28;45333;-74
2022/05/02 09:31:17;;;;;;;;;49.00;40.50;;;;;;;;5079068;28;45531;-74
2022/05/02 09:33:48;;;;;;;;;47.50;39.75;;;;;;;;5079422;28;46912;-75
2022/05/02 09:36:14;;;;;;;;;49.75;41.00;;;;;;;;5080336;27;46604;-75
2022/05/02 09:38:40;;;;;;;;;46.00;37.75;;;;;;;;5079046;28;45341;-75
2022/05/02 09:41:11;;;;;;;;;46.75;38.50;;;;;;;;5080679;27;45338;-75
2022/05/02 09:49:36;;;;;;;;;44.00;35.00;;;;;;;;5080233;28;45343;-75
2022/05/02 09:52:04;;;;;;;;;45.50;39.00;;;;;;;;5062157;27;45298;-75
2022/05/02 09:57:26;;;;;;;;;43.50;37.75;;;;;;;;5059541;28;45391;-75
2022/05/02 10:02:44;;;;;;;;;45.25;39.25;;;;;;;;5058371;27;45313;-76
2022/05/02 10:05:10;;;;;;;;;42.50;34.25;;;;;;;;5079808;27;46085;-74
2022/05/02 10:07:49;;;;;;;;;44.50;38.25;;;;;;;;5079952;27;45719;-75
2022/05/02 10:10:21;;;;;;;;;47.25;39.50;;;;;;;;5080055;27;45379;-74
2022/05/02 10:12:55;;;;;;;;;37.50;32.75;;;;;;;;5080222;27;45381;-75
2022/05/02 10:15:27;;;;;;;;;42.25;35.50;;;;;;;;5084861;27;45780;-74
2022/05/02 10:17:53;;;;;;;;;41.50;35.50;;;;;;;;5100336;27;45388;-75
2022/05/02 10:20:19;;;;;;;;;42.50;36.75;;;;;;;;5098877;27;45563;-74
2022/05/02 10:22:47;;;;;;;;;45.25;37.50;;;;;;;;5100378;27;45361;-74
2022/05/02 10:25:19;;;;;;;;;36.75;33.75;;;;;;;;5100505;27;45305;-75
2022/05/02 10:28:03;;;;;;;;;35.33;30.67;;;;;;;;5100485;27;45489;-75
2022/05/02 10:30:34;;;;;;;;;36.67;33.00;;;;;;;;5100253;27;45243;-75
2022/05/02 10:33:03;;;;;;;;;38.67;33.00;;;;;;;;5089874;27;45293;-75
2022/05/02 10:35:28;;;;;;;;;42.00;35.50;;;;;;;;5079678;27;45500;-75
2022/05/02 10:37:58;;;;;;;;;39.67;34.00;;;;;;;;5079784;27;45928;-74
2022/05/02 10:40:29;;;;;;;;;34.67;31.00;;;;;;;;5079697;27;45282;-75
2022/05/02 10:42:56;;;;;;;;;37.67;33.33;;;;;;;;5076958;27;45299;-76
2022/05/02 10:45:24;;;;;;;;;37.00;33.33;;;;;;;;5079274;27;45368;-75
2022/05/02 10:47:49;;;;;;;;;33.67;31.33;;;;;;;;5079061;28;46508;-76
2022/05/02 10:50:20;;;;;;;;;37.00;33.33;;;;;;;;5078097;28;45809;-75
2022/05/02 10:52:45;;;;;;;;;36.67;32.67;;;;;;;;5079561;27;45390;-74
2022/05/02 10:55:30;;;;;;;;;34.00;31.67;;;;;;;;5078977;27;45539;-75
2022/05/02 10:58:00;;;;;;;;;35.33;31.33;;;;;;;;5081640;28;46726;-74
2022/05/02 11:00:26;;;;;;;;;35.33;33.33;;;;;;;;5080915;28;45405;-75
2022/05/02 11:02:53;;;;;;;;;30.00;28.33;;;;;;;;5083015;27;45314;-74
2022/05/02 11:05:24;;;;;;;;;39.00;33.33;;;;;;;;5082256;27;45478;-74
2022/05/02 11:08:09;;;;;;;;;33.33;31.00;;;;;;;;5082738;27;46224;-74
2022/05/02 11:10:50;;;;;;;;;32.33;29.33;;;;;;;;5082790;27;45272;-75
2022/05/02 11:13:33;;;;;;;;;34.33;31.67;;;;;;;;5083783;27;45319;-77
2022/05/02 11:15:59;;;;;;;;;29.67;28.00;;;;;;;;5097297;28;46533;-76
2022/05/02 11:21:17;;;;;;;;;38.00;33.67;;;;;;;;5095098;28;45305;-76
2022/05/02 11:24:11;;;;;;;;;30.00;28.67;;;;;;;;5094766;28;45372;-77
2022/05/02 11:26:49;;;;;;;;;35.67;32.33;;;;;;;;5087040;27;45337;-76
2022/05/02 11:29:26;;;;;;;;;30.67;29.33;;;;;;;;5093143;28;46323;-77
2022/05/02 11:32:01;;;;;;;;;32.33;29.67;;;;;;;;5094259;28;45240;-76
2022/05/02 11:34:47;;;;;;;;;29.67;28.67;;;;;;;;5087312;27;44636;-77
2022/05/02 11:37:22;;;;;;;;;30.00;28.33;;;;;;;;5084384;28;45313;-76
2022/05/02 11:40:00;;;;;;;;;30.33;28.00;;;;;;;;5089723;27;45193;-76
2022/05/02 11:42:28;;;;;;;;;33.33;28.67;;;;;;;;5091387;27;45228;-77
2022/05/02 11:45:12;;;;;;;;;29.67;29.00;;;;;;;;5090544;27;45330;-76
2022/05/02 11:48:01;;;;;;;;;31.33;29.67;;;;;;;;5091999;28;45941;-77
2022/05/02 11:50:27;;;;;;;;;29.00;28.67;;;;;;;;5091914;27;46106;-77
2022/05/02 11:52:53;;;;;;;;;24.00;24.00;;;;;;;;5095638;27;45236;-76
2022/05/02 11:55:25;;;;;;;;;25.00;24.00;;;;;;;;5089704;27;45333;-76
2022/05/02 11:57:53;;;;;;;;;28.33;27.67;;;;;;;;5093661;27;45305;-77
2022/05/02 12:00:18;;;;;;;;;26.67;26.67;;;;;;;;5086879;28;47050;-77
2022/05/02 12:02:48;;;;;;;;;26.67;25.67;;;;;;;;5093624;27;45342;-75
2022/05/02 12:05:23;;;;;;;;;24.67;24.67;;;;;;;;5095576;28;45257;-77
2022/05/02 12:07:56;;;;;;;;;29.67;26.67;;;;;;;;5088480;28;46963;-77
2022/05/02 12:10:30;;;;;;;;;25.67;23.67;;;;;;;;5089181;27;47867;-76
2022/05/02 12:12:57;;;;;;;;;28.33;28.00;;;;;;;;5089397;27;45218;-77
2022/05/02 12:15:22;;;;;;;;;25.00;25.00;;;;;;;;5089533;27;45506;-76
2022/05/02 12:17:55;;;;;;;;;22.33;21.67;;;;;;;;5085484;28;46319;-77
2022/05/02 12:20:23;;;;;;;;;27.67;26.00;;;;;;;;5087382;27;45970;-77
2022/05/02 12:22:54;;;;;;;;;26.00;26.00;;;;;;;;5087824;27;45327;-76
2022/05/02 12:25:23;;;;;;;;;24.67;23.33;;;;;;;;5085275;28;45362;-78
2022/05/02 12:27:48;;;;;;;;;22.67;21.33;;;;;;;;5088768;27;45511;-76
2022/05/02 12:30:14;;;;;;;;;21.00;19.33;;;;;;;;5086294;28;46613;-77
2022/05/02 12:32:41;;;;;;;;;21.33;21.33;;;;;;;;5087110;27;45345;-77
2022/05/02 12:35:07;;;;;;;;;24.33;24.33;;;;;;;;5085369;28;45232;-77
2022/05/02 12:37:33;;;;;;;;;25.00;24.00;;;;;;;;5085957;27;45532;-76
2022/05/02 12:40:08;;;;;;;;;29.67;25.00;;;;;;;;5089598;28;47484;-75
2022/05/02 12:42:47;;;;;;;;;19.00;19.00;;;;;;;;5094543;27;45276;-76
2022/05/02 12:45:15;;;;;;;;;19.33;19.33;;;;;;;;5094248;28;45266;-76
2022/05/02 12:47:41;;;;;;;;;22.33;21.67;;;;;;;;5088165;27;45602;-77
2022/05/02 12:50:11;;;;;;;;;20.33;19.33;;;;;;;;5094644;27;46050;-77
2022/05/02 12:52:42;;;;;;;;;20.67;20.67;;;;;;;;5089965;27;45219;-77
2022/05/02 12:55:08;;;;;;;;;17.33;16.67;;;;;;;;5090533;27;45239;-76
2022/05/02 13:00:30;;;;;;;;;24.00;21.00;;;;;;;;5086098;28;45260;-76
2022/05/02 13:02:58;;;;;;;;;23.33;22.33;;;;;;;;5091484;27;45173;-75
2022/05/02 13:05:24;;;;;;;;;23.00;22.00;;;;;;;;5091189;28;45381;-76
2022/05/02 13:07:53;;;;;;;;;18.00;18.00;;;;;;;;5082224;28;45325;-76
2022/05/02 13:10:26;;;;;;;;;22.67;21.67;;;;;;;;5084602;27;46230;-76
2022/05/02 13:13:04;;;;;;;;;20.67;18.67;;;;;;;;5081703;27;45280;-74
2022/05/02 13:15:37;;;;;;;;;21.33;20.33;;;;;;;;5088923;27;45360;-75
2022/05/02 13:18:04;;;;;;;;;22.67;21.67;;;;;;;;5101589;27;45323;-75
2022/05/02 13:20:30;;;;;;;;;20.67;20.33;;;;;;;;5101320;27;45294;-75
2022/05/02 13:23:10;;;;;;;;;27.75;27.50;;;;;;;;5103800;27;45254;-80
2022/05/02 13:25:54;;;;;;;;;20.67;18.67;;;;;;;;5104854;27;45316;-78
2022/05/02 13:28:26;;;;;;;;;23.33;23.33;;;;;;;;5102812;27;45302;-77
2022/05/02 13:30:57;;;;;;;;;21.00;21.00;;;;;;;;5099904;27;48632;-74
2022/05/02 13:33:43;;;;;;;;;21.00;21.00;;;;;;;;5101691;27;45352;-75
2022/05/02 13:36:09;;;;;;;;;23.00;22.33;;;;;;;;5100282;27;45408;-76
2022/05/02 13:38:52;;;;;;;;;23.00;23.00;;;;;;;;5101161;27;45464;-75
2022/05/02 13:41:30;;;;;;;;;22.00;22.00;;;;;;;;5101016;27;45445;-75
2022/05/02 13:44:14;;;;;;;;;22.67;21.67;;;;;;;;5099819;27;45286;-75
2022/05/02 13:47:02;;;;;;;;;23.00;21.67;;;;;;;;5101088;27;45335;-75
2022/05/02 13:49:36;;;;;;;;;23.00;21.00;;;;;;;;5101206;27;45399;-76
2022/05/02 13:52:02;;;;;;;;;22.33;20.33;;;;;;;;5085633;27;45452;-75
2022/05/02 13:54:30;;;;;;;;;25.00;24.00;;;;;;;;5080238;27;45346;-76
2022/05/02 13:56:59;;;;;;;;;24.00;23.33;;;;;;;;5080958;27;45298;-76
2022/05/02 13:59:53;;;;;;;;;27.00;25.67;;;;;;;;5080840;27;45318;-76
2022/05/02 14:02:18;;;;;;;;;19.00;17.67;;;;;;;;5080290;27;45646;-76
2022/05/02 14:04:51;;;;;;;;;22.67;21.33;;;;;;;;5078940;28;45274;-75
2022/05/02 14:07:17;;;;;;;;;21.67;20.67;;;;;;;;5080599;27;45366;-75
2022/05/02 14:09:46;;;;;;;;;20.00;20.00;;;;;;;;5080328;27;45227;-75
2022/05/02 14:12:23;;;;;;;;;21.00;21.00;;;;;;;;5079383;27;45297;-75
2022/05/02 14:15:09;;;;;;;;;17.00;16.67;;;;;;;;5082679;27;45278;-76
2022/05/02 14:17:42;;;;;;;;;17.00;17.00;;;;;;;;5085234;27;45342;-75
2022/05/02 14:20:20;;;;;;;;;18.67;18.67;;;;;;;;5078284;28;46094;-75
2022/05/02 14:22:46;;;;;;;;;19.00;17.33;;;;;;;;5080103;27;45359;-75
2022/05/02 14:25:22;;;;;;;;;17.00;17.00;;;;;;;;5079946;27;45267;-75
2022/05/02 14:27:47;;;;;;;;;17.67;17.67;;;;;;;;5078646;28;45355;-75
2022/05/02 14:30:20;;;;;;;;;16.67;16.67;;;;;;;;5075242;28;46073;-76
2022/05/02 14:32:45;;;;;;;;;16.33;16.33;;;;;;;;5078115;28;45490;-76
2022/05/02 14:35:21;;;;;;;;;20.00;19.33;;;;;;;;5076949;28;46113;-75
2022/05/02 14:37:47;;;;;;;;;23.33;23.33;;;;;;;;5079676;27;45445;-76
2022/05/02 14:40:12;;;;;;;;;21.33;20.33;;;;;;;;5078451;27;45516;-75
2022/05/02 14:42:39;;;;;;;;;20.67;20.67;;;;;;;;5078417;27;46149;-75
2022/05/02 14:45:04;;;;;;;;;21.00;20.00;;;;;;;;5079228;27;45325;-76
2022/05/02 14:47:32;;;;;;;;;26.00;25.00;;;;;;;;5079491;27;45360;-75
2022/05/02 14:49:57;;;;;;;;;23.00;22.00;;;;;;;;5080401;27;45392;-76
2022/05/02 14:52:23;;;;;;;;;25.67;24.33;;;;;;;;5081947;28;47574;-77
2022/05/02 14:54:50;;;;;;;;;28.67;28.33;;;;;;;;5083490;27;45345;-77
2022/05/02 14:57:18;;;;;;;;;27.33;26.67;;;;;;;;5082678;27;45358;-77
2022/05/02 14:59:45;;;;;;;;;22.00;21.67;;;;;;;;5080301;27;45469;-76
2022/05/02 15:02:11;;;;;;;;;24.67;23.00;;;;;;;;5079642;28;47289;-76
2022/05/02 15:04:39;;;;;;;;;24.67;24.67;;;;;;;;5081255;28;45588;-77
2022/05/02 15:07:08;;;;;;;;;25.00;24.67;;;;;;;;5080279;28;45378;-76
2022/05/02 15:12:28;;;;;;;;;24.00;24.00;;;;;;;;5078314;28;45699;-75
2022/05/02 15:15:12;;;;;;;;;26.33;25.67;;;;;;;;5079231;27;45409;-76